sensor_id;sensor_type;location;lat;lon;timestamp;P1;durP1;ratioP1;P2;durP2;ratioP2
11646;SDS011;5880;52.342;9.662;2022-11-11T00:01:05;2.23;;;1.10;;
11646;SDS011;5880;52.342;9.662;2022-11-11T00:03:35;1.63;;;1.10;;
11646;SDS011;5880;52.342;9.662;2022-11-11T00:06:05;1.53;;;1.00;;
11646;SDS011;5880;52.342;9.662;2022-11-11T00:08:35;1.00;;;0.87;;
11646;SDS011;5880;52.342;9.662;2022-11-11T00:11:02;0.80;;;0.80;;
11646;SDS011;5880;52.342;9.662;2022-11-11T00:13:33;1.27;;;0.93;;
11646;SDS011;5880;52.342;9.662;2022-11-11T00:16:03;4.13;;;1.50;;
11646;SDS011;5880;52.342;9.662;2022-11-11T00:18:38;1.27;;;0.93;;
11646;SDS011;5880;52.342;9.662;2022-11-11T00:21:25;1.57;;;1.03;;
11646;SDS011;5880;52.342;9.662;2022-11-11T00:24:21;2.70;;;1.10;;
11646;SDS011;5880;52.342;9.662;2022-11-11T00:27:09;2.67;;;1.10;;
11646;SDS011;5880;52.342;9.662;2022-11-11T00:29:36;1.70;;;1.20;;
11646;SDS011;5880;52.342;9.662;2022-11-11T00:32:03;1.30;;;0.80;;
11646;SDS011;5880;52.342;9.662;2022-11-11T00:34:52;0.83;;;0.80;;
11646;SDS011;5880;52.342;9.662;2022-11-11T00:37:38;3.27;;;0.83;;
11646;SDS011;5880;52.342;9.662;2022-11-11T00:40:06;1.87;;;0.90;;
11646;SDS011;5880;52.342;9.662;2022-11-11T00:42:33;0.93;;;0.80;;
11646;SDS011;5880;52.342;9.662;2022-11-11T00:44:59;1.43;;;0.90;;
11646;SDS011;5880;52.342;9.662;2022-11-11T00:47:25;1.30;;;0.70;;
11646;SDS011;5880;52.342;9.662;2022-11-11T00:50:10;1.43;;;0.90;;
11646;SDS011;5880;52.342;9.662;2022-11-11T00:53:10;2.40;;;0.90;;
11646;SDS011;5880;52.342;9.662;2022-11-11T00:55:51;1.43;;;1.03;;
11646;SDS011;5880;52.342;9.662;2022-11-11T00:58:17;0.80;;;0.80;;
11646;SDS011;5880;52.342;9.662;2022-11-11T01:00:43;1.17;;;0.90;;
11646;SDS011;5880;52.342;9.662;2022-11-11T01:03:09;1.30;;;0.93;;
11646;SDS011;5880;52.342;9.662;2022-11-11T01:05:38;2.37;;;0.93;;
11646;SDS011;5880;52.342;9.662;2022-11-11T01:08:04;2.03;;;0.90;;
11646;SDS011;5880;52.342;9.662;2022-11-11T01:10:30;1.57;;;1.10;;
11646;SDS011;5880;52.342;9.662;2022-11-11T01:13:02;2.57;;;1.10;;
11646;SDS011;5880;52.342;9.662;2022-11-11T01:15:36;1.60;;;0.90;;
11646;SDS011;5880;52.342;9.662;2022-11-11T01:18:04;2.13;;;1.00;;
11646;SDS011;5880;52.342;9.662;2022-11-11T01:20:31;2.10;;;0.90;;
11646;SDS011;5880;52.342;9.662;2022-11-11T01:22:57;2.00;;;0.93;;
11646;SDS011;5880;52.342;9.662;2022-11-11T01:25:22;1.33;;;1.07;;
11646;SDS011;5880;52.342;9.662;2022-11-11T01:27:48;2.57;;;1.20;;
11646;SDS011;5880;52.342;9.662;2022-11-11T01:30:14;1.87;;;1.30;;
11646;SDS011;5880;52.342;9.662;2022-11-11T01:32:40;3.03;;;1.13;;
11646;SDS011;5880;52.342;9.662;2022-11-11T01:35:06;3.60;;;1.30;;
11646;SDS011;5880;52.342;9.662;2022-11-11T01:37:32;1.60;;;1.10;;
11646;SDS011;5880;52.342;9.662;2022-11-11T01:39:59;2.40;;;1.37;;
11646;SDS011;5880;52.342;9.662;2022-11-11T01:42:26;2.17;;;1.17;;
11646;SDS011;5880;52.342;9.662;2022-11-11T01:44:52;1.60;;;1.17;;
11646;SDS011;5880;52.342;9.662;2022-11-11T01:47:18;2.47;;;1.30;;
11646;SDS011;5880;52.342;9.662;2022-11-11T01:49:52;1.47;;;1.17;;
11646;SDS011;5880;52.342;9.662;2022-11-11T01:52:27;2.47;;;1.53;;
11646;SDS011;5880;52.342;9.662;2022-11-11T01:54:58;2.27;;;1.30;;
11646;SDS011;5880;52.342;9.662;2022-11-11T02:00:22;2.17;;;1.33;;
11646;SDS011;5880;52.342;9.662;2022-11-11T02:02:58;2.27;;;1.60;;
11646;SDS011;5880;52.342;9.662;2022-11-11T02:05:31;2.20;;;1.30;;
11646;SDS011;5880;52.342;9.662;2022-11-11T02:08:16;2.40;;;1.13;;
11646;SDS011;5880;52.342;9.662;2022-11-11T02:11:06;2.43;;;1.17;;
11646;SDS011;5880;52.342;9.662;2022-11-11T02:14:00;1.93;;;1.20;;
11646;SDS011;5880;52.342;9.662;2022-11-11T02:16:45;1.70;;;1.23;;
11646;SDS011;5880;52.342;9.662;2022-11-11T02:19:11;1.63;;;1.23;;
11646;SDS011;5880;52.342;9.662;2022-11-11T02:21:43;1.17;;;1.10;;
11646;SDS011;5880;52.342;9.662;2022-11-11T02:24:19;3.13;;;1.10;;
11646;SDS011;5880;52.342;9.662;2022-11-11T02:26:47;1.43;;;1.10;;
11646;SDS011;5880;52.342;9.662;2022-11-11T02:29:15;1.60;;;1.10;;
11646;SDS011;5880;52.342;9.662;2022-11-11T02:31:44;1.37;;;1.00;;
11646;SDS011;5880;52.342;9.662;2022-11-11T02:34:10;1.60;;;0.93;;
11646;SDS011;5880;52.342;9.662;2022-11-11T02:36:36;1.30;;;0.90;;
11646;SDS011;5880;52.342;9.662;2022-11-11T02:39:04;1.70;;;1.00;;
11646;SDS011;5880;52.342;9.662;2022-11-11T02:41:30;2.77;;;1.07;;
11646;SDS011;5880;52.342;9.662;2022-11-11T02:44:14;1.77;;;1.00;;
11646;SDS011;5880;52.342;9.662;2022-11-11T02:46:40;2.83;;;1.10;;
11646;SDS011;5880;52.342;9.662;2022-11-11T02:49:05;1.83;;;1.20;;
11646;SDS011;5880;52.342;9.662;2022-11-11T02:51:31;3.00;;;1.30;;
11646;SDS011;5880;52.342;9.662;2022-11-11T02:53:57;2.03;;;1.33;;
11646;SDS011;5880;52.342;9.662;2022-11-11T02:56:25;1.13;;;1.03;;
11646;SDS011;5880;52.342;9.662;2022-11-11T02:59:12;2.33;;;1.23;;
11646;SDS011;5880;52.342;9.662;2022-11-11T03:01:38;1.50;;;1.13;;
11646;SDS011;5880;52.342;9.662;2022-11-11T03:04:04;2.27;;;1.30;;
11646;SDS011;5880;52.342;9.662;2022-11-11T03:06:30;1.93;;;1.07;;
11646;SDS011;5880;52.342;9.662;2022-11-11T03:08:56;3.60;;;1.40;;
11646;SDS011;5880;52.342;9.662;2022-11-11T03:11:22;3.13;;;1.47;;
11646;SDS011;5880;52.342;9.662;2022-11-11T03:13:57;1.40;;;1.10;;
11646;SDS011;5880;52.342;9.662;2022-11-11T03:16:24;3.47;;;1.40;;
11646;SDS011;5880;52.342;9.662;2022-11-11T03:19:09;2.53;;;1.50;;
11646;SDS011;5880;52.342;9.662;2022-11-11T03:21:35;1.83;;;1.20;;
11646;SDS011;5880;52.342;9.662;2022-11-11T03:24:01;1.87;;;1.17;;
11646;SDS011;5880;52.342;9.662;2022-11-11T03:26:27;1.70;;;1.20;;
11646;SDS011;5880;52.342;9.662;2022-11-11T03:28:53;2.17;;;1.30;;
11646;SDS011;5880;52.342;9.662;2022-11-11T03:31:18;1.80;;;1.20;;
11646;SDS011;5880;52.342;9.662;2022-11-11T03:33:44;2.03;;;1.07;;
11646;SDS011;5880;52.342;9.662;2022-11-11T03:36:10;5.30;;;1.23;;
11646;SDS011;5880;52.342;9.662;2022-11-11T03:38:36;1.77;;;1.50;;
11646;SDS011;5880;52.342;9.662;2022-11-11T03:41:02;2.40;;;1.40;;
11646;SDS011;5880;52.342;9.662;2022-11-11T03:43:29;1.20;;;1.10;;
11646;SDS011;5880;52.342;9.662;2022-11-11T03:45:58;2.30;;;1.63;;
11646;SDS011;5880;52.342;9.662;2022-11-11T03:48:27;2.07;;;1.20;;
11646;SDS011;5880;52.342;9.662;2022-11-11T03:50:55;1.80;;;1.10;;
11646;SDS011;5880;52.342;9.662;2022-11-11T03:53:21;2.00;;;1.20;;
11646;SDS011;5880;52.342;9.662;2022-11-11T03:55:47;3.30;;;1.37;;
11646;SDS011;5880;52.342;9.662;2022-11-11T03:58:14;1.40;;;1.20;;
11646;SDS011;5880;52.342;9.662;2022-11-11T04:00:41;1.43;;;1.00;;
11646;SDS011;5880;52.342;9.662;2022-11-11T04:03:18;1.50;;;1.20;;
11646;SDS011;5880;52.342;9.662;2022-11-11T04:06:03;1.10;;;1.00;;
11646;SDS011;5880;52.342;9.662;2022-11-11T04:08:48;2.13;;;1.33;;
11646;SDS011;5880;52.342;9.662;2022-11-11T04:11:37;1.20;;;1.07;;
11646;SDS011;5880;52.342;9.662;2022-11-11T04:14:11;2.10;;;1.10;;
11646;SDS011;5880;52.342;9.662;2022-11-11T04:16:57;1.17;;;1.10;;
11646;SDS011;5880;52.342;9.662;2022-11-11T04:19:24;2.23;;;1.20;;
11646;SDS011;5880;52.342;9.662;2022-11-11T04:22:08;1.50;;;1.17;;
11646;SDS011;5880;52.342;9.662;2022-11-11T04:24:34;1.60;;;1.20;;
11646;SDS011;5880;52.342;9.662;2022-11-11T04:27:19;1.63;;;1.13;;
11646;SDS011;5880;52.342;9.662;2022-11-11T04:29:45;1.30;;;1.20;;
11646;SDS011;5880;52.342;9.662;2022-11-11T04:32:15;1.70;;;1.10;;
11646;SDS011;5880;52.342;9.662;2022-11-11T04:35:03;2.10;;;1.10;;
11646;SDS011;5880;52.342;9.662;2022-11-11T04:37:36;1.20;;;1.10;;
11646;SDS011;5880;52.342;9.662;2022-11-11T04:40:10;1.30;;;1.00;;
11646;SDS011;5880;52.342;9.662;2022-11-11T04:42:55;2.00;;;1.10;;
11646;SDS011;5880;52.342;9.662;2022-11-11T04:45:21;2.13;;;1.10;;
11646;SDS011;5880;52.342;9.662;2022-11-11T04:50:30;2.17;;;1.10;;
11646;SDS011;5880;52.342;9.662;2022-11-11T04:53:01;1.30;;;0.93;;
11646;SDS011;5880;52.342;9.662;2022-11-11T04:55:29;1.20;;;1.10;;
11646;SDS011;5880;52.342;9.662;2022-11-11T04:58:15;1.53;;;1.20;;
11646;SDS011;5880;52.342;9.662;2022-11-11T05:00:43;1.50;;;1.00;;
11646;SDS011;5880;52.342;9.662;2022-11-11T05:03:09;2.47;;;1.20;;
11646;SDS011;5880;52.342;9.662;2022-11-11T05:06:00;1.67;;;1.17;;
11646;SDS011;5880;52.342;9.662;2022-11-11T05:08:45;1.53;;;1.10;;
11646;SDS011;5880;52.342;9.662;2022-11-11T05:11:24;1.30;;;0.97;;
11646;SDS011;5880;52.342;9.662;2022-11-11T05:13:53;1.97;;;1.10;;
11646;SDS011;5880;52.342;9.662;2022-11-11T05:19:36;2.20;;;1.40;;
11646;SDS011;5880;52.342;9.662;2022-11-11T05:22:40;1.87;;;1.20;;
11646;SDS011;5880;52.342;9.662;2022-11-11T05:25:08;1.27;;;1.10;;
11646;SDS011;5880;52.342;9.662;2022-11-11T05:27:53;2.13;;;1.20;;
11646;SDS011;5880;52.342;9.662;2022-11-11T05:30:22;1.10;;;1.00;;
11646;SDS011;5880;52.342;9.662;2022-11-11T05:32:49;1.87;;;0.97;;
11646;SDS011;5880;52.342;9.662;2022-11-11T05:35:16;1.57;;;1.10;;
11646;SDS011;5880;52.342;9.662;2022-11-11T05:37:42;1.50;;;1.10;;
11646;SDS011;5880;52.342;9.662;2022-11-11T05:40:29;1.53;;;0.93;;
11646;SDS011;5880;52.342;9.662;2022-11-11T05:42:54;1.27;;;1.10;;
11646;SDS011;5880;52.342;9.662;2022-11-11T05:45:20;1.73;;;1.10;;
11646;SDS011;5880;52.342;9.662;2022-11-11T05:47:46;2.00;;;1.20;;
11646;SDS011;5880;52.342;9.662;2022-11-11T05:50:11;1.50;;;1.40;;
11646;SDS011;5880;52.342;9.662;2022-11-11T05:52:37;2.37;;;1.00;;
11646;SDS011;5880;52.342;9.662;2022-11-11T05:55:03;1.83;;;1.07;;
11646;SDS011;5880;52.342;9.662;2022-11-11T05:57:29;1.63;;;1.10;;
11646;SDS011;5880;52.342;9.662;2022-11-11T05:59:55;1.20;;;1.10;;
11646;SDS011;5880;52.342;9.662;2022-11-11T06:02:22;1.97;;;1.20;;
11646;SDS011;5880;52.342;9.662;2022-11-11T06:04:48;1.37;;;1.10;;
11646;SDS011;5880;52.342;9.662;2022-11-11T06:07:14;1.93;;;1.23;;
11646;SDS011;5880;52.342;9.662;2022-11-11T06:09:39;0.87;;;0.87;;
11646;SDS011;5880;52.342;9.662;2022-11-11T06:12:05;1.77;;;1.17;;
11646;SDS011;5880;52.342;9.662;2022-11-11T06:14:31;1.33;;;1.07;;
11646;SDS011;5880;52.342;9.662;2022-11-11T06:16:56;2.13;;;1.20;;
11646;SDS011;5880;52.342;9.662;2022-11-11T06:19:22;1.67;;;1.07;;
11646;SDS011;5880;52.342;9.662;2022-11-11T06:21:48;2.03;;;1.10;;
11646;SDS011;5880;52.342;9.662;2022-11-11T06:24:20;3.90;;;1.30;;
11646;SDS011;5880;52.342;9.662;2022-11-11T06:26:46;1.40;;;1.07;;
11646;SDS011;5880;52.342;9.662;2022-11-11T06:29:12;2.47;;;1.20;;
11646;SDS011;5880;52.342;9.662;2022-11-11T06:31:38;2.40;;;1.40;;
11646;SDS011;5880;52.342;9.662;2022-11-11T06:34:04;2.23;;;1.30;;
11646;SDS011;5880;52.342;9.662;2022-11-11T06:36:30;1.77;;;1.20;;
11646;SDS011;5880;52.342;9.662;2022-11-11T06:38:55;2.00;;;1.30;;
11646;SDS011;5880;52.342;9.662;2022-11-11T06:41:21;2.93;;;1.13;;
11646;SDS011;5880;52.342;9.662;2022-11-11T06:43:49;1.60;;;1.03;;
11646;SDS011;5880;52.342;9.662;2022-11-11T06:46:17;2.60;;;1.30;;
11646;SDS011;5880;52.342;9.662;2022-11-11T06:48:48;1.57;;;1.30;;
11646;SDS011;5880;52.342;9.662;2022-11-11T06:51:14;1.50;;;1.20;;
11646;SDS011;5880;52.342;9.662;2022-11-11T06:53:41;2.17;;;1.20;;
11646;SDS011;5880;52.342;9.662;2022-11-11T06:56:07;1.30;;;1.00;;
11646;SDS011;5880;52.342;9.662;2022-11-11T06:58:34;1.50;;;1.20;;
11646;SDS011;5880;52.342;9.662;2022-11-11T07:01:02;2.13;;;1.20;;
11646;SDS011;5880;52.342;9.662;2022-11-11T07:03:33;1.50;;;1.30;;
11646;SDS011;5880;52.342;9.662;2022-11-11T07:06:00;1.57;;;1.10;;
11646;SDS011;5880;52.342;9.662;2022-11-11T07:08:27;1.13;;;1.03;;
11646;SDS011;5880;52.342;9.662;2022-11-11T07:10:53;1.93;;;1.50;;
11646;SDS011;5880;52.342;9.662;2022-11-11T07:13:19;2.20;;;1.30;;
11646;SDS011;5880;52.342;9.662;2022-11-11T07:15:45;1.93;;;1.27;;
11646;SDS011;5880;52.342;9.662;2022-11-11T07:18:12;4.40;;;1.17;;
11646;SDS011;5880;52.342;9.662;2022-11-11T07:20:37;1.97;;;1.30;;
11646;SDS011;5880;52.342;9.662;2022-11-11T07:23:04;2.43;;;1.40;;
11646;SDS011;5880;52.342;9.662;2022-11-11T07:25:31;2.20;;;1.43;;
11646;SDS011;5880;52.342;9.662;2022-11-11T07:27:57;2.53;;;1.57;;
11646;SDS011;5880;52.342;9.662;2022-11-11T07:30:23;3.90;;;1.30;;
11646;SDS011;5880;52.342;9.662;2022-11-11T07:32:49;2.83;;;1.50;;
11646;SDS011;5880;52.342;9.662;2022-11-11T07:35:17;1.63;;;1.10;;
11646;SDS011;5880;52.342;9.662;2022-11-11T07:37:43;2.83;;;1.10;;
11646;SDS011;5880;52.342;9.662;2022-11-11T07:40:10;2.87;;;1.20;;
11646;SDS011;5880;52.342;9.662;2022-11-11T07:42:40;2.30;;;1.17;;
11646;SDS011;5880;52.342;9.662;2022-11-11T07:45:07;2.17;;;1.10;;
11646;SDS011;5880;52.342;9.662;2022-11-11T07:47:35;1.97;;;1.27;;
11646;SDS011;5880;52.342;9.662;2022-11-11T07:50:02;2.13;;;1.30;;
11646;SDS011;5880;52.342;9.662;2022-11-11T07:52:30;2.07;;;1.27;;
11646;SDS011;5880;52.342;9.662;2022-11-11T07:54:56;2.37;;;1.40;;
11646;SDS011;5880;52.342;9.662;2022-11-11T07:57:21;2.07;;;1.30;;
11646;SDS011;5880;52.342;9.662;2022-11-11T07:59:48;1.63;;;1.30;;
11646;SDS011;5880;52.342;9.662;2022-11-11T08:02:13;4.07;;;1.40;;
11646;SDS011;5880;52.342;9.662;2022-11-11T08:04:39;1.43;;;1.23;;
11646;SDS011;5880;52.342;9.662;2022-11-11T08:07:05;2.43;;;1.40;;
11646;SDS011;5880;52.342;9.662;2022-11-11T08:09:31;2.37;;;1.23;;
11646;SDS011;5880;52.342;9.662;2022-11-11T08:11:57;2.07;;;1.20;;
11646;SDS011;5880;52.342;9.662;2022-11-11T08:14:41;1.90;;;1.20;;
11646;SDS011;5880;52.342;9.662;2022-11-11T08:17:07;2.30;;;1.10;;
11646;SDS011;5880;52.342;9.662;2022-11-11T08:19:32;1.97;;;1.60;;
11646;SDS011;5880;52.342;9.662;2022-11-11T08:21:58;2.33;;;1.30;;
11646;SDS011;5880;52.342;9.662;2022-11-11T08:24:24;3.83;;;1.17;;
11646;SDS011;5880;52.342;9.662;2022-11-11T08:26:49;1.47;;;1.30;;
11646;SDS011;5880;52.342;9.662;2022-11-11T08:29:17;1.80;;;1.37;;
11646;SDS011;5880;52.342;9.662;2022-11-11T08:31:43;1.73;;;1.20;;
11646;SDS011;5880;52.342;9.662;2022-11-11T08:34:09;2.90;;;1.10;;
11646;SDS011;5880;52.342;9.662;2022-11-11T08:36:35;1.30;;;1.13;;
11646;SDS011;5880;52.342;9.662;2022-11-11T08:39:01;2.60;;;1.20;;
11646;SDS011;5880;52.342;9.662;2022-11-11T08:41:27;1.70;;;1.13;;
11646;SDS011;5880;52.342;9.662;2022-11-11T08:43:53;1.97;;;1.23;;
11646;SDS011;5880;52.342;9.662;2022-11-11T08:46:20;1.77;;;1.20;;
11646;SDS011;5880;52.342;9.662;2022-11-11T08:48:47;2.77;;;1.23;;
11646;SDS011;5880;52.342;9.662;2022-11-11T08:51:14;2.60;;;1.30;;
11646;SDS011;5880;52.342;9.662;2022-11-11T08:53:40;1.80;;;1.30;;
11646;SDS011;5880;52.342;9.662;2022-11-11T08:56:06;3.43;;;1.50;;
11646;SDS011;5880;52.342;9.662;2022-11-11T08:58:33;2.43;;;1.37;;
11646;SDS011;5880;52.342;9.662;2022-11-11T09:00:59;1.73;;;1.17;;
11646;SDS011;5880;52.342;9.662;2022-11-11T09:03:25;1.93;;;1.10;;
11646;SDS011;5880;52.342;9.662;2022-11-11T09:05:51;3.33;;;1.20;;
11646;SDS011;5880;52.342;9.662;2022-11-11T09:08:17;1.73;;;1.23;;
11646;SDS011;5880;52.342;9.662;2022-11-11T09:10:43;2.23;;;1.33;;
11646;SDS011;5880;52.342;9.662;2022-11-11T09:13:09;2.20;;;1.30;;
11646;SDS011;5880;52.342;9.662;2022-11-11T09:15:34;2.60;;;1.60;;
11646;SDS011;5880;52.342;9.662;2022-11-11T09:18:00;2.33;;;1.27;;
11646;SDS011;5880;52.342;9.662;2022-11-11T09:20:26;1.97;;;1.20;;
11646;SDS011;5880;52.342;9.662;2022-11-11T09:22:52;2.73;;;1.20;;
11646;SDS011;5880;52.342;9.662;2022-11-11T09:25:18;1.30;;;1.20;;
11646;SDS011;5880;52.342;9.662;2022-11-11T09:27:53;1.60;;;1.00;;
11646;SDS011;5880;52.342;9.662;2022-11-11T09:30:21;2.80;;;1.00;;
11646;SDS011;5880;52.342;9.662;2022-11-11T09:32:48;0.90;;;0.87;;
11646;SDS011;5880;52.342;9.662;2022-11-11T09:35:14;1.77;;;1.00;;
11646;SDS011;5880;52.342;9.662;2022-11-11T09:37:39;1.63;;;1.17;;
11646;SDS011;5880;52.342;9.662;2022-11-11T09:40:05;1.20;;;0.97;;
11646;SDS011;5880;52.342;9.662;2022-11-11T09:42:48;1.00;;;0.90;;
11646;SDS011;5880;52.342;9.662;2022-11-11T09:46:09;1.23;;;0.90;;
11646;SDS011;5880;52.342;9.662;2022-11-11T09:52:05;2.50;;;1.00;;
11646;SDS011;5880;52.342;9.662;2022-11-11T10:00:02;1.33;;;0.97;;
11646;SDS011;5880;52.342;9.662;2022-11-11T10:02:46;1.40;;;1.10;;
11646;SDS011;5880;52.342;9.662;2022-11-11T10:05:25;1.33;;;1.10;;
11646;SDS011;5880;52.342;9.662;2022-11-11T10:08:12;1.73;;;0.90;;
11646;SDS011;5880;52.342;9.662;2022-11-11T10:10:54;1.10;;;0.93;;
11646;SDS011;5880;52.342;9.662;2022-11-11T10:13:31;1.10;;;0.83;;
11646;SDS011;5880;52.342;9.662;2022-11-11T10:16:03;1.40;;;0.80;;
11646;SDS011;5880;52.342;9.662;2022-11-11T10:18:50;1.00;;;0.80;;
11646;SDS011;5880;52.342;9.662;2022-11-11T10:24:12;1.10;;;0.90;;
11646;SDS011;5880;52.342;9.662;2022-11-11T10:26:45;1.13;;;0.87;;
11646;SDS011;5880;52.342;9.662;2022-11-11T10:29:21;1.70;;;0.90;;
11646;SDS011;5880;52.342;9.662;2022-11-11T10:31:55;1.47;;;1.07;;
11646;SDS011;5880;52.342;9.662;2022-11-11T10:34:38;1.33;;;0.90;;
11646;SDS011;5880;52.342;9.662;2022-11-11T10:37:12;1.87;;;1.13;;
11646;SDS011;5880;52.342;9.662;2022-11-11T10:42:42;1.13;;;0.80;;
11646;SDS011;5880;52.342;9.662;2022-11-11T10:45:30;0.73;;;0.73;;
11646;SDS011;5880;52.342;9.662;2022-11-11T10:48:40;1.80;;;0.80;;
11646;SDS011;5880;52.342;9.662;2022-11-11T10:51:14;2.03;;;0.80;;
11646;SDS011;5880;52.342;9.662;2022-11-11T11:02:05;0.85;;;0.80;;
11646;SDS011;5880;52.342;9.662;2022-11-11T11:07:16;1.48;;;0.85;;
11646;SDS011;5880;52.342;9.662;2022-11-11T11:10:06;1.75;;;0.80;;
11646;SDS011;5880;52.342;9.662;2022-11-11T11:12:51;2.38;;;0.73;;
11646;SDS011;5880;52.342;9.662;2022-11-11T11:15:32;0.77;;;0.77;;
11646;SDS011;5880;52.342;9.662;2022-11-11T11:18:07;0.93;;;0.60;;
11646;SDS011;5880;52.342;9.662;2022-11-11T11:20:38;0.57;;;0.52;;
11646;SDS011;5880;52.342;9.662;2022-11-11T11:24:02;0.85;;;0.60;;
11646;SDS011;5880;52.342;9.662;2022-11-11T11:26:21;1.95;;;0.60;;
11646;SDS011;5880;52.342;9.662;2022-11-11T11:28:56;1.10;;;0.50;;
11646;SDS011;5880;52.342;9.662;2022-11-11T11:31:35;0.68;;;0.60;;
11646;SDS011;5880;52.342;9.662;2022-11-11T11:34:04;1.50;;;0.70;;
11646;SDS011;5880;52.342;9.662;2022-11-11T11:36:30;1.00;;;0.70;;
11646;SDS011;5880;52.342;9.662;2022-11-11T11:38:56;2.05;;;0.77;;
11646;SDS011;5880;52.342;9.662;2022-11-11T11:41:34;0.50;;;0.50;;
11646;SDS011;5880;52.342;9.662;2022-11-11T11:44:48;0.68;;;0.60;;
11646;SDS011;5880;52.342;9.662;2022-11-11T11:47:05;1.02;;;0.65;;
11646;SDS011;5880;52.342;9.662;2022-11-11T11:55:36;0.80;;;0.60;;
11646;SDS011;5880;52.342;9.662;2022-11-11T12:01:02;1.08;;;0.80;;
11646;SDS011;5880;52.342;9.662;2022-11-11T12:09:36;1.65;;;0.60;;
11646;SDS011;5880;52.342;9.662;2022-11-11T12:15:27;1.98;;;0.65;;
11646;SDS011;5880;52.342;9.662;2022-11-11T12:18:16;0.95;;;0.60;;
11646;SDS011;5880;52.342;9.662;2022-11-11T12:21:08;0.98;;;0.52;;
11646;SDS011;5880;52.342;9.662;2022-11-11T12:26:40;0.57;;;0.57;;
11646;SDS011;5880;52.342;9.662;2022-11-11T12:32:35;0.52;;;0.52;;
11646;SDS011;5880;52.342;9.662;2022-11-11T12:35:55;2.08;;;0.52;;
11646;SDS011;5880;52.342;9.662;2022-11-11T12:38:57;0.55;;;0.50;;
11646;SDS011;5880;52.342;9.662;2022-11-11T12:41:58;1.05;;;0.73;;
11646;SDS011;5880;52.342;9.662;2022-11-11T12:45:17;0.30;;;0.30;;
11646;SDS011;5880;52.342;9.662;2022-11-11T12:50:52;0.75;;;0.70;;
11646;SDS011;5880;52.342;9.662;2022-11-11T12:53:42;0.98;;;0.65;;
11646;SDS011;5880;52.342;9.662;2022-11-11T12:56:23;0.57;;;0.40;;
11646;SDS011;5880;52.342;9.662;2022-11-11T13:02:30;0.47;;;0.40;;
11646;SDS011;5880;52.342;9.662;2022-11-11T13:05:26;0.32;;;0.32;;
11646;SDS011;5880;52.342;9.662;2022-11-11T13:10:58;0.30;;;0.30;;
11646;SDS011;5880;52.342;9.662;2022-11-11T13:17:03;0.40;;;0.30;;
11646;SDS011;5880;52.342;9.662;2022-11-11T13:19:40;1.05;;;0.50;;
11646;SDS011;5880;52.342;9.662;2022-11-11T13:22:20;1.00;;;0.45;;
11646;SDS011;5880;52.342;9.662;2022-11-11T13:24:48;0.70;;;0.40;;
11646;SDS011;5880;52.342;9.662;2022-11-11T13:35:35;0.65;;;0.50;;
11646;SDS011;5880;52.342;9.662;2022-11-11T13:39:16;0.40;;;0.40;;
11646;SDS011;5880;52.342;9.662;2022-11-11T13:41:24;0.57;;;0.40;;
11646;SDS011;5880;52.342;9.662;2022-11-11T13:44:05;0.60;;;0.30;;
11646;SDS011;5880;52.342;9.662;2022-11-11T13:46:41;1.45;;;0.35;;
11646;SDS011;5880;52.342;9.662;2022-11-11T13:49:21;1.30;;;0.50;;
11646;SDS011;5880;52.342;9.662;2022-11-11T13:52:03;0.70;;;0.50;;
11646;SDS011;5880;52.342;9.662;2022-11-11T13:54:47;2.22;;;0.68;;
11646;SDS011;5880;52.342;9.662;2022-11-11T13:57:25;0.60;;;0.60;;
11646;SDS011;5880;52.342;9.662;2022-11-11T14:00:30;2.25;;;0.90;;
11646;SDS011;5880;52.342;9.662;2022-11-11T14:05:44;2.00;;;0.70;;
11646;SDS011;5880;52.342;9.662;2022-11-11T14:08:10;0.82;;;0.60;;
11646;SDS011;5880;52.342;9.662;2022-11-11T14:17:03;0.80;;;0.80;;
11646;SDS011;5880;52.342;9.662;2022-11-11T14:19:36;0.70;;;0.70;;
11646;SDS011;5880;52.342;9.662;2022-11-11T14:22:02;2.15;;;0.68;;
11646;SDS011;5880;52.342;9.662;2022-11-11T14:25:17;1.15;;;0.93;;
11646;SDS011;5880;52.342;9.662;2022-11-11T14:27:49;1.92;;;0.63;;
11646;SDS011;5880;52.342;9.662;2022-11-11T14:30:28;1.45;;;0.82;;
11646;SDS011;5880;52.342;9.662;2022-11-11T14:33:06;0.80;;;0.80;;
11646;SDS011;5880;52.342;9.662;2022-11-11T14:35:52;0.80;;;0.77;;
11646;SDS011;5880;52.342;9.662;2022-11-11T14:54:53;1.63;;;0.70;;
11646;SDS011;5880;52.342;9.662;2022-11-11T14:57:47;1.88;;;1.20;;
11646;SDS011;5880;52.342;9.662;2022-11-11T15:00:21;0.80;;;0.80;;
11646;SDS011;5880;52.342;9.662;2022-11-11T15:02:52;1.02;;;0.68;;
11646;SDS011;5880;52.342;9.662;2022-11-11T15:05:25;1.08;;;0.73;;
11646;SDS011;5880;52.342;9.662;2022-11-11T15:23:29;1.33;;;0.80;;
11646;SDS011;5880;52.342;9.662;2022-11-11T15:37:51;0.87;;;0.83;;
11646;SDS011;5880;52.342;9.662;2022-11-11T15:40:21;2.00;;;0.90;;
11646;SDS011;5880;52.342;9.662;2022-11-11T15:42:55;1.33;;;1.00;;
11646;SDS011;5880;52.342;9.662;2022-11-11T15:45:22;3.33;;;1.17;;
11646;SDS011;5880;52.342;9.662;2022-11-11T15:47:57;2.07;;;1.10;;
11646;SDS011;5880;52.342;9.662;2022-11-11T15:53:00;1.30;;;1.10;;
11646;SDS011;5880;52.342;9.662;2022-11-11T15:55:28;1.53;;;1.00;;
11646;SDS011;5880;52.342;9.662;2022-11-11T15:58:10;1.20;;;1.00;;
11646;SDS011;5880;52.342;9.662;2022-11-11T16:00:40;1.50;;;0.90;;
11646;SDS011;5880;52.342;9.662;2022-11-11T16:03:13;2.47;;;1.40;;
11646;SDS011;5880;52.342;9.662;2022-11-11T16:05:46;2.17;;;1.30;;
11646;SDS011;5880;52.342;9.662;2022-11-11T16:08:16;1.10;;;1.00;;
11646;SDS011;5880;52.342;9.662;2022-11-11T16:10:44;2.47;;;1.30;;
11646;SDS011;5880;52.342;9.662;2022-11-11T16:13:20;1.57;;;1.20;;
11646;SDS011;5880;52.342;9.662;2022-11-11T16:18:42;1.47;;;1.20;;
11646;SDS011;5880;52.342;9.662;2022-11-11T16:21:19;3.40;;;1.20;;
11646;SDS011;5880;52.342;9.662;2022-11-11T16:23:53;1.50;;;1.20;;
11646;SDS011;5880;52.342;9.662;2022-11-11T16:26:21;1.90;;;1.13;;
11646;SDS011;5880;52.342;9.662;2022-11-11T16:28:51;1.57;;;1.23;;
11646;SDS011;5880;52.342;9.662;2022-11-11T16:34:45;2.00;;;1.40;;
11646;SDS011;5880;52.342;9.662;2022-11-11T16:37:01;1.47;;;1.10;;
11646;SDS011;5880;52.342;9.662;2022-11-11T16:39:30;1.77;;;1.40;;
11646;SDS011;5880;52.342;9.662;2022-11-11T16:41:58;1.80;;;1.33;;
11646;SDS011;5880;52.342;9.662;2022-11-11T16:44:35;1.77;;;1.50;;
11646;SDS011;5880;52.342;9.662;2022-11-11T16:47:37;1.70;;;1.50;;
11646;SDS011;5880;52.342;9.662;2022-11-11T16:50:22;1.93;;;1.37;;
11646;SDS011;5880;52.342;9.662;2022-11-11T16:52:53;2.07;;;1.80;;
11646;SDS011;5880;52.342;9.662;2022-11-11T16:55:29;2.07;;;1.50;;
11646;SDS011;5880;52.342;9.662;2022-11-11T17:00:46;2.90;;;2.30;;
11646;SDS011;5880;52.342;9.662;2022-11-11T17:03:20;3.67;;;2.83;;
11646;SDS011;5880;52.342;9.662;2022-11-11T17:05:54;4.30;;;3.10;;
11646;SDS011;5880;52.342;9.662;2022-11-11T17:08:43;3.27;;;2.67;;
11646;SDS011;5880;52.342;9.662;2022-11-11T17:11:10;3.80;;;3.40;;
11646;SDS011;5880;52.342;9.662;2022-11-11T17:14:04;4.00;;;3.20;;
11646;SDS011;5880;52.342;9.662;2022-11-11T17:16:31;3.67;;;3.10;;
11646;SDS011;5880;52.342;9.662;2022-11-11T17:19:00;6.17;;;3.70;;
11646;SDS011;5880;52.342;9.662;2022-11-11T17:21:27;5.17;;;4.20;;
11646;SDS011;5880;52.342;9.662;2022-11-11T17:23:53;5.50;;;4.20;;
11646;SDS011;5880;52.342;9.662;2022-11-11T17:26:19;6.40;;;4.00;;
11646;SDS011;5880;52.342;9.662;2022-11-11T17:28:45;5.90;;;4.07;;
11646;SDS011;5880;52.342;9.662;2022-11-11T17:31:11;4.27;;;3.30;;
11646;SDS011;5880;52.342;9.662;2022-11-11T17:33:37;3.97;;;3.57;;
11646;SDS011;5880;52.342;9.662;2022-11-11T17:36:03;3.60;;;3.30;;
11646;SDS011;5880;52.342;9.662;2022-11-11T17:38:34;4.63;;;3.43;;
11646;SDS011;5880;52.342;9.662;2022-11-11T17:41:03;4.03;;;3.40;;
11646;SDS011;5880;52.342;9.662;2022-11-11T17:43:30;3.27;;;2.97;;
11646;SDS011;5880;52.342;9.662;2022-11-11T17:45:59;4.40;;;3.07;;
11646;SDS011;5880;52.342;9.662;2022-11-11T17:48:26;3.27;;;2.40;;
11646;SDS011;5880;52.342;9.662;2022-11-11T17:50:52;3.90;;;2.47;;
11646;SDS011;5880;52.342;9.662;2022-11-11T17:53:18;2.63;;;2.37;;
11646;SDS011;5880;52.342;9.662;2022-11-11T17:55:43;2.53;;;2.30;;
11646;SDS011;5880;52.342;9.662;2022-11-11T17:58:10;2.80;;;2.30;;